Latest Coastal Weather Observations for Karratha

IDW60701

Issued at 3:53 am WST Tuesday 30 August 2016 (issued every 10 minutes, with the page automatically refreshed every 10 minutes)

About coastal observations | Map of coastal stations | Coastal observations for WA | Marine services | Other Formats
Station Details ID: 004083 Name: KARRATHA AERO Lat: -20.71 Lon: 116.77 Height: 5.3 m
Data from the previous 72 hours. | See also: Recent months at Karratha
Date/Time
WST
Temp
°C
Wind Pressure Rain since
9am
mm
Weather Cloud Vis
km
Sea
Height
m
Swell
Dir  Spd
kts
Gust
kts
hPa Trend Height
m
Period
s
Dir
30/03:30am 12.8 SSW 3 5 1012.1 - 0.0 - - 10 - - - -
30/03:00am 13.7 SW 3 4 1012.1 - 0.0 - - 10 - - - -
30/02:30am 14.4 SW 3 4 1012.3 - 0.0 - - 10 - - - -
30/02:00am 16.3 W 4 5 1012.4 - 0.0 - - 10 - - - -
30/01:30am 16.7 W 5 6 1012.4 - 0.0 - - 10 - - - -
30/01:00am 17.0 W 7 7 1012.5 - 0.0 - - 10 - - - -
30/12:30am 17.4 WSW 8 9 1012.7 - 0.0 - - 10 - - - -
30/12:00am 17.9 WSW 10 13 1012.8 - 0.0 - - 10 - - - -
 
Date/Time
WST
Temp
°C
Wind Pressure Rain since
9am
mm
Weather Cloud Vis
km
Sea
Height
m
Swell
Dir  Spd
kts
Gust
kts
hPa Trend Height
m
Period
s
Dir
29/11:30pm 18.4 WSW 11 13 1012.7 - 0.0 - - 10 - - - -
29/11:00pm 18.9 WSW 11 15 1012.7 - 0.0 - - 10 - - - -
29/10:30pm 18.8 WSW 11 15 1012.7 - 0.0 - - 10 - - - -
29/10:00pm 19.2 WSW 12 14 1012.8 - 0.0 - - 10 - - - -
29/09:30pm 19.9 W 12 16 1012.9 - 0.0 - - 10 - - - -
29/09:00pm 20.2 W 13 16 1012.8 - 0.0 - - 10 - - - -
29/08:30pm 20.6 W 15 19 1012.5 - 0.0 - - 10 - - - -
29/08:00pm 20.7 W 16 21 1012.4 - 0.0 - - 10 - - - -
29/07:30pm 20.8 W 17 21 1011.9 - 0.0 - - 10 - - - -
29/07:00pm 21.1 W 17 21 1011.5 - 0.0 - - 10 - - - -
29/06:30pm 21.2 W 16 20 1011.1 - 0.0 - - 10 - - - -
29/06:00pm 21.5 W 17 21 1010.7 - 0.0 - - 10 - - - -
29/05:30pm 22.0 W 18 22 1010.6 - 0.0 - - 10 - - - -
29/05:00pm 22.6 W 17 21 1010.4 - 0.0 - - 10 - - - -
29/04:30pm 23.4 W 17 21 1010.1 - 0.0 - - 10 - - - -
29/04:00pm 24.1 WNW 14 21 1010.2 - 0.0 - - 10 - - - -
29/03:30pm 25.0 WNW 14 19 1010.2 - 0.0 - - 10 - - - -
29/03:00pm 24.7 WNW 15 19 1010.1 - 0.0 - - 10 - - - -
29/02:30pm 25.4 NW 15 19 1010.2 - 0.0 - - 10 - - - -
29/02:00pm 25.4 NW 11 14 1010.5 - 0.0 - - 10 - - - -
29/01:30pm 25.6 WNW 9 13 1010.9 - 0.0 - - 10 - - - -
29/01:00pm 25.8 WNW 11 15 1011.5 - 0.0 - - 10 - - - -
29/12:30pm 24.9 W 9 13 1011.9 - 0.0 - - 10 - - - -
29/12:00pm 25.3 SSW 5 10 1012.4 - 0.0 - - 10 - - - -
29/11:30am 24.1 WSW 9 14 1012.7 - 0.0 - - 10 - - - -
29/11:00am 23.9 W 10 16 1012.9 - 0.0 - - 10 - - - -
29/10:30am 22.9 WSW 10 19 1013.3 - 0.0 - - 10 - - - -
29/10:00am 22.8 SW 9 13 1013.6 - 0.0 - - 10 - - - -
29/09:30am 22.7 SSW 11 17 1013.5 - 0.0 - - 10 - - - -
29/09:00am 21.2 S 10 13 1013.7 - 0.0 - - 10 - - - -
29/08:30am 20.4 S 10 13 1013.8 - 0.0 - - 10 - - - -
29/08:00am 18.9 SSW 7 9 1013.8 - 0.0 - - 10 - - - -
29/07:30am 17.2 SW 4 6 1013.9 - 0.0 - - 10 - - - -
29/07:00am 15.0 SW 6 7 1013.3 - 0.0 - - 10 - - - -
29/06:30am 13.8 SSW 7 8 1012.9 - 0.0 - - 10 - - - -
29/06:00am 13.8 SSW 5 7 1012.4 - 0.0 - - 10 - - - -
29/05:30am 14.0 WSW 6 6 1012.3 - 0.0 - - 10 - - - -
29/05:00am 14.4 WSW 7 8 1011.7 - 0.0 - - 10 - - - -
29/04:30am 15.3 WSW 7 8 1011.4 - 0.0 - - 10 - - - -
29/04:00am 15.3 WSW 8 9 1011.2 - 0.0 - - 10 - - - -
29/03:30am 15.3 WSW 9 10 1011.2 - 0.0 - - 10 - - - -
29/03:00am 15.7 SW 7 8 1011.1 - 0.0 - - 10 - - - -
29/02:30am 17.6 WSW 8 10 1011.4 - 0.0 - - 10 - - - -
29/02:00am 18.5 WSW 10 12 1011.5 - 0.0 - - 10 - - - -
29/01:30am 18.9 WSW 8 11 1011.3 - 0.0 - - 10 - - - -
29/01:00am 19.1 WSW 8 10 1011.3 - 0.0 - - 10 - - - -
29/12:30am 19.9 WSW 10 11 1011.7 - 0.0 - Partly cloudy 10 - - - -
29/12:00am 20.4 WSW 10 12 1012.0 - 0.0 - Mostly clear 10 - - - -
 
Date/Time
WST
Temp
°C
Wind Pressure Rain since
9am
mm
Weather Cloud Vis
km
Sea
Height
m
Swell
Dir  Spd
kts
Gust
kts
hPa Trend Height
m
Period
s
Dir
28/11:30pm 20.8 WSW 11 15 1012.2 - 0.0 - - 10 - - - -
28/11:00pm 21.1 WSW 10 13 1012.0 - 0.0 - - 10 - - - -
28/10:30pm 21.4 WSW 12 15 1012.2 - 0.0 - - 10 - - - -
28/10:00pm 21.4 W 12 14 1012.3 - 0.0 - - 10 - - - -
28/09:30pm 21.5 WSW 13 16 1012.5 - 0.0 - Partly cloudy 10 - - - -
28/09:00pm 21.7 W 12 15 1012.4 - 0.0 - Partly cloudy 10 - - - -
28/08:30pm 21.6 W 13 16 1012.1 - 0.0 - Partly cloudy 10 - - - -
28/08:00pm 21.6 W 14 18 1012.1 - 0.0 - Partly cloudy 10 - - - -
28/07:30pm 21.5 W 14 18 1011.6 - 0.0 - Partly cloudy 10 - - - -
28/07:00pm 21.4 WNW 12 16 1011.3 - 0.0 - Partly cloudy 10 - - - -
28/06:30pm 22.1 WNW 13 16 1010.4 - 0.0 - Partly cloudy 10 - - - -
28/06:00pm 22.4 W 12 15 1011.1 - 0.0 - Mostly clear 10 - - - -
28/05:30pm 22.5 WNW 11 14 1011.0 - 0.0 - Partly cloudy 10 - - - -
28/05:00pm 22.6 WNW 11 15 1011.1 - 0.0 - - 10 - - - -
28/04:30pm 23.2 WNW 12 15 1010.8 - 0.0 - - 10 - - - -
28/04:00pm 23.0 WNW 13 15 1010.8 - 0.0 - - 10 - - - -
28/03:30pm 23.5 WNW 13 16 1010.9 - 0.0 - - 10 - - - -
28/03:00pm 23.4 WNW 13 17 1010.6 - 0.0 - - 10 - - - -
28/02:30pm 23.3 WNW 11 14 1010.6 - 0.0 - - 10 - - - -
28/02:00pm 23.2 WNW 12 17 1011.1 - 0.0 - - 10 - - - -
28/01:30pm 23.5 WNW 10 12 1011.5 - 0.0 - - 10 - - - -
28/01:00pm 23.7 W 10 13 1011.5 - 0.0 - - 10 - - - -
28/12:30pm 23.3 W 10 12 1012.0 - 0.0 - - 10 - - - -
28/12:00pm 23.1 W 9 10 1012.4 - 0.0 - - 10 - - - -
28/11:30am 22.8 WSW 9 12 1012.7 - 0.0 - - 10 - - - -
28/11:00am 23.0 WSW 9 13 1013.1 - 0.0 - - 10 - - - -
28/10:30am 22.9 WSW 10 13 1013.6 - 0.0 - - 10 - - - -
28/10:00am 23.1 SW 9 13 1013.6 - 0.0 - - 10 - - - -
28/09:30am 22.4 SW 11 14 1013.9 - 0.0 - - 10 - - - -
28/09:00am 22.1 SW 11 14 1013.7 - 0.8 - - 10 - - - -
28/08:30am 21.3 SW 7 10 1013.1 - 0.8 - - - - - - -
28/08:00am 21.2 WSW 8 11 1012.9 - 0.8 - - - - - - -
28/07:30am 20.9 SW 5 6 1012.5 - 0.8 - - 10 - - - -
28/07:00am 20.4 WSW 5 6 1012.3 - 0.8 - Partly cloudy 10 - - - -
28/06:30am 20.4 SW 8 9 1011.9 - 0.6 - - 10 - - - -
28/06:00am 20.7 SW 9 11 1011.9 - 0.6 Recent precip. - 10 - - - -
28/05:30am 21.0 WSW 11 13 1011.6 - 0.6 - Partly cloudy 10 - - - -
28/05:03am 21.5 W 9 13 1011.2 - 0.2 - Partly cloudy 10 - - - -
28/05:02am 21.5 W 10 13 1011.2 - 0.2 - Partly cloudy 10 - - - -
28/05:00am 21.5 W 10 13 1011.3 - 0.2 - Partly cloudy 10 - - - -
28/04:44am 21.4 WSW 12 16 1011.4 - 0.2 - Partly cloudy 4 - - - -
28/04:43am 21.4 WSW 12 16 1011.4 - 0.2 - Partly cloudy 5 - - - -
28/04:30am 21.9 WSW 11 14 1011.5 - 0.0 - Partly cloudy 10 - - - -
28/04:00am 22.4 W 10 13 1011.2 - 0.0 - Cloudy 10 - - - -
28/03:30am 22.5 W 10 12 1011.3 - 0.0 - Partly cloudy 10 - - - -
28/03:00am 22.6 W 13 16 1011.3 - 0.0 - Mostly cloudy 10 - - - -
28/02:30am 23.2 W 10 12 1011.4 - 0.0 - Partly cloudy 10 - - - -
28/02:00am 23.2 W 9 11 1011.6 - 0.0 - Partly cloudy 10 - - - -
28/01:30am 23.3 WNW 6 7 1011.7 - 0.0 - Partly cloudy 10 - - - -
28/01:00am 23.2 W 6 7 1012.0 - 0.0 - Partly cloudy 10 - - - -
28/12:30am 23.3 W 6 8 1012.4 - 0.0 - Cloudy 10 - - - -
28/12:00am 23.3 WSW 6 8 1012.3 - 0.0 - Mostly clear 10 - - - -
 
Date/Time
WST
Temp
°C
Wind Pressure Rain since
9am
mm
Weather Cloud Vis
km
Sea
Height
m
Swell
Dir  Spd
kts
Gust
kts
hPa Trend Height
m
Period
s
Dir
27/11:30pm 23.6 W 9 11 1012.7 - 0.0 - Partly cloudy 10 - - - -
27/11:00pm 23.5 WNW 9 11 1012.7 - 0.0 - Partly cloudy 10 - - - -
27/10:30pm 23.0 WNW 7 9 1012.7 - 0.0 - - 10 - - - -
27/10:00pm 22.7 NW 7 10 1012.7 - 0.0 - - 10 - - - -
27/09:30pm 22.8 WNW 8 11 1013.0 - 0.0 - - 10 - - - -
27/09:00pm 23.0 WNW 9 11 1012.8 - 0.0 - - 10 - - - -
27/08:30pm 23.1 WNW 11 14 1012.6 - 0.0 - - 10 - - - -
27/08:00pm 23.1 WNW 10 14 1012.6 - 0.0 - - 10 - - - -
27/07:30pm 23.3 WNW 10 13 1012.2 - 0.0 - - 10 - - - -
27/07:00pm 23.5 WNW 12 15 1012.0 - 0.0 - - 10 - - - -
27/06:30pm 23.5 WNW 11 15 1011.6 - 0.0 - - 10 - - - -
27/06:00pm 23.8 WNW 10 13 1011.4 - 0.0 - - 10 - - - -
27/05:30pm 25.3 W 12 14 1011.2 - 0.0 - - 10 - - - -
27/05:00pm 25.7 W 12 16 1011.1 - 0.0 - - 10 - - - -
27/04:30pm 26.6 W 14 16 1011.1 - 0.0 - - 10 - - - -
27/04:00pm 26.8 W 13 16 1011.0 - 0.0 - - 10 - - - -
27/03:30pm 27.2 W 15 17 1011.0 - 0.0 - - 10 - - - -
27/03:00pm 27.1 W 13 17 1011.0 - 0.0 - - 10 - - - -
27/02:30pm 26.4 W 14 17 1011.2 - 0.0 - - 10 - - - -
27/02:00pm 26.3 WNW 11 14 1011.6 - 0.0 - Partly cloudy 10 - - - -
27/01:30pm 25.9 NW 10 14 1012.0 - 0.0 - Partly cloudy 10 - - - -
27/01:00pm 26.2 NNE 8 13 1012.3 - 0.0 - - 10 - - - -
27/12:30pm 26.1 NE 11 13 1012.8 - 0.0 - - 10 - - - -
27/12:00pm 25.3 NE 11 14 1013.3 - 0.0 - - 10 - - - -
27/11:30am 26.9 NNW 6 11 1013.7 - 0.0 - - 10 - - - -
27/11:00am 25.6 NE 8 11 1013.9 - 0.0 - - 10 - - - -
27/10:30am 24.9 NE 9 11 1014.2 - 0.0 - - 10 - - - -
27/10:00am 24.5 NE 6 9 1014.7 - 0.0 - - 10 - - - -
27/09:30am 23.5 N 3 6 1014.9 - 0.0 - - 10 - - - -
27/09:00am 22.4 NW 3 4 1014.7 - 0.0 - - 10 - - - -
27/08:30am 21.2 SW 5 6 1014.4 - 0.0 - - 10 - - - -
27/08:00am 19.0 SW 2 4 1014.1 - 0.0 - - 10 - - - -
27/07:30am 16.6 SW 4 5 1014.1 - 0.0 - - 10 - - - -
27/07:00am 13.6 SSE 7 8 1013.8 - 0.0 - - 10 - - - -
27/06:30am 13.1 S 4 5 1013.5 - 0.0 - - 10 - - - -
27/06:00am 13.2 SSE 6 7 1013.4 - 0.0 - - 10 - - - -
27/05:30am 13.4 S 6 7 1013.2 - 0.0 - - 10 - - - -
27/05:00am 13.3 S 6 7 1012.9 - 0.0 - - 10 - - - -
27/04:30am 13.3 S 7 8 1012.5 - 0.0 - - 10 - - - -
27/04:00am 13.1 S 6 6 1012.3 - 0.0 - - 10 - - - -

Other Formats:

Comma delimited format used in spreadsheet applications
http://www.bom.gov.au/fwo/IDW60701/IDW60701.95307.axf

JavaScript Object Notation format (JSON) in row-major order
http://www.bom.gov.au/fwo/IDW60701/IDW60701.95307.json